• Join FlightAware (Why Join?)
  • Login
  • US Flag 
03:50AM EDT


 

Airport Tracker/Info


-or-


 

Live Flight TrackerFlight Track Log ✈ DAL268 ✈ 28-Jul-2013 ✈ KJFK - LLBG / TLV

Flight Track Log - Related Links

Times and Time Zones

All times are in EDT time to prevent confusion due to time zone crossing. See the DAL268 flight status page for this flight to view local times or setup timezone preferences in your user account.

Time Position Orientation Groundspeed Altitude Reporting Facility
EDT Latitude Longitude Course Direction KTS MPH feet Rate Location/Type
12:46AM 40.6260 -73.7720 201° Southwest 130 150  Level FlightAware
12:47AM 40.6090 -73.7850 210° Southwest 172 198 400 1,260 Climbing FlightAware
12:47AM 40.5890 -73.8010 211° Southwest 181 208 1,200 1,380 Climbing FlightAware
12:47AM 40.5760 -73.8030 187° South 197 227 1,400 960 Climbing FlightAware
12:48AM 40.5620 -73.7940 154° Southeast 219 252 1,700 1,020 Climbing FlightAware
12:48AM 40.5550 -73.7810 125° Southeast 231 266 1,900 840 Climbing FlightAware
12:48AM 40.5520 -73.7580 100° East 248 285 2,100 780 Climbing FlightAware
12:48AM 40.5540 -73.7480 75° East 254 292 2,200 1,200 Climbing FlightAware
12:48AM 40.5590 -73.7290 71° East 265 305 2,500 1,260 Climbing FlightAware
12:49AM 40.5740 -73.6850 66° East 287 330 3,100 1,500 Climbing FlightAware
12:49AM 40.5870 -73.6390 70° East 293 337 3,900 1,800 Climbing FlightAware
12:49AM 40.5860 -73.6180 94° East 291 335 4,300 1,920 Climbing FlightAware
12:50AM 40.5790 -73.5920 110° East 292 336 4,800 2,100 Climbing FlightAware
12:50AM 40.5660 -73.5520 113° Southeast 296 341 5,700 2,220 Climbing FlightAware
12:50AM 40.5565 -73.5248 115° Southeast 299 344 6,300 2,100 Climbing FlightAware ADS-B
12:51AM 40.5480 -73.4998 114° Southeast 301 346 6,800 1,980 Climbing FlightAware ADS-B
12:51AM 40.5394 -73.4746 114° Southeast 304 350 7,300 1,980 Climbing FlightAware ADS-B
12:51AM 40.5307 -73.4484 114° Southeast 308 354 7,800 1,860 Climbing FlightAware ADS-B
12:51AM 40.5209 -73.4199 114° Southeast 313 360 8,300 1,920 Climbing FlightAware ADS-B
12:52AM 40.5111 -73.3909 114° Southeast 316 364 8,900 1,980 Climbing FlightAware ADS-B
12:52AM 40.5016 -73.3622 114° Southeast 318 366 9,400 2,040 Climbing FlightAware ADS-B
12:52AM 40.4922 -73.3339 114° Southeast 320 368 10,000 1,560 Climbing FlightAware ADS-B
12:53AM 40.4735 -73.2783 114° Southeast 341 392 10,600 1,200 Climbing FlightAware ADS-B
12:53AM 40.4618 -73.2435 114° Southeast 354 407 11,000 1,080 Climbing FlightAware ADS-B
12:53AM 40.4569 -73.2245 109° East 364 419 11,100 1,020 Climbing FlightAware ADS-B
12:53AM 40.4544 -73.2061 100° East 373 429 11,300 1,260 Climbing FlightAware ADS-B
12:53AM 40.4539 -73.1941 93° East 378 435 11,400 900 Climbing FlightAware ADS-B
12:54AM 40.4556 -73.1630 86° East 392 451 11,600 1,080 Climbing FlightAware ADS-B
12:54AM 40.4597 -73.1419 76° East 401 461 11,800 1,020 Climbing FlightAware ADS-B
12:54AM 40.4651 -73.1235 69° East 409 471 11,900 840 Climbing FlightAware ADS-B
12:54AM 40.4704 -73.1107 61° Northeast 414 476 12,000 1,200 Climbing FlightAware ADS-B
12:54AM 40.4748 -73.1021 56° Northeast 418 481 12,100 840 Climbing FlightAware ADS-B
12:54AM 40.4783 -73.0958 54° Northeast 420 483 12,100 1,380 Level FlightAware ADS-B
12:54AM 40.4916 -73.0764 48° Northeast 427 491 12,400 1,860 Climbing FlightAware ADS-B
12:55AM 40.5332 -73.0265 42° Northeast 436 502 13,300 1,920 Climbing FlightAware ADS-B
12:55AM 40.5496 -73.0050 45° Northeast 438 504 13,700 2,040 Climbing FlightAware ADS-B
12:55AM 40.5686 -72.9768 48° Northeast 441 507 14,200 2,040 Climbing FlightAware ADS-B
12:56AM 40.6062 -72.9135 52° Northeast 448 516 15,200 2,160 Climbing FlightAware ADS-B
12:56AM 40.6450 -72.8427 54° Northeast 455 524 16,400 1,980 Climbing FlightAware ADS-B
12:57AM 40.6824 -72.7728 55° Northeast 461 531 17,300 1,620 Climbing FlightAware ADS-B
12:57AM 40.7196 -72.7025 55° Northeast 472 543 18,100 1,560 Climbing FlightAware ADS-B
12:58AM 40.7575 -72.6309 55° Northeast 481 554 18,900 1,620 Climbing FlightAware ADS-B
12:58AM 40.7969 -72.5564 55° Northeast 488 562 19,800 1,560 Climbing FlightAware ADS-B
12:59AM 40.8361 -72.4821 55° Northeast 496 571 20,500 1,440 Climbing FlightAware ADS-B
12:59AM 40.8783 -72.4025 55° Northeast 504 580 21,300 1,560 Climbing FlightAware ADS-B
01:00AM 40.9220 -72.3195 55° Northeast 510 587 22,200 1,440 Climbing FlightAware ADS-B
01:00AM 40.9773 -72.2138 55° Northeast 518 596 23,100 1,260 Climbing FlightAware ADS-B
01:01AM 41.0310 -72.1111 55° Northeast 529 609 23,900 360 Climbing FlightAware ADS-B
01:02AM 41.0920 -71.9960 55° Northeast 527 606 23,700 1,200 Descending FlightAware
01:03AM 41.1750 -71.8340 56° Northeast 550 633 26,000 1,560 Climbing FlightAware
01:04AM 41.2250 -71.7400 55° Northeast 550 633 26,000  Level FlightAware
01:04AM 41.2710 -71.6530 55° Northeast 550 633 26,000 1,620 Level FlightAware
01:05AM 41.3590 -71.4760 56° Northeast 568 654 28,300 2,160 Climbing FlightAware
01:06AM 41.4180 -71.3600 56° Northeast 563 648 29,200 1,320 Climbing FlightAware
01:06AM 41.4830 -71.2330 56° Northeast 560 644 30,200 1,260 Climbing FlightAware
01:07AM 41.5420 -71.1170 56° Northeast 559 643 31,000 180 Climbing FlightAware
01:10AM 41.6910 -70.6625 66° East  Level FlightAware Approximate
01:10AM 41.7758 -70.6642 60° Northeast 559 643 31,000  Level Boston Center
01:11AM 41.7505 -70.4789 66° East  Level FlightAware Approximate
01:11AM 41.8667 -70.4831 56° Northeast 548 631 31,000  Level Boston Center
01:12AM 41.8097 -70.2950 67° East  Level FlightAware Approximate
01:12AM 41.9511 -70.3100 57° Northeast 543 625 31,000  Level Boston Center
01:13AM 41.8923 -70.1275 61° Northeast  Level Estimated
01:14AM 41.9662 -69.9527 60° Northeast  Level FlightAware Approximate
01:14AM 42.1272 -69.9597 56° Northeast 557 641 31,000  Level Boston Center
01:15AM 42.0398 -69.7775 60° Northeast  Level FlightAware Approximate
01:16AM 42.2541 -69.6781 59° Northeast  Level FlightAware Approximate
01:19AM 42.5406 -69.0864 63° Northeast 556 640 31,000  Level Boston Center
01:21AM 42.7069 -68.7356 57° Northeast 556 640 31,000  Level Boston Center
01:22AM 42.7500 -68.5833 69° East 550 633 31,000  Level Moncton Center
01:23AM 42.7345 -68.4127 62° Northeast  Level FlightAware Approximate
01:24AM 42.8016 -68.2308 63° Northeast  Level FlightAware Approximate
01:24AM 42.9167 -68.2500 56° Northeast 540 621 31,000  Level Moncton Center
01:25AM 43.0000 -68.0667 58° Northeast 540 621 31,000  Level Moncton Center
01:27AM 43.1500 -67.7167 59° Northeast 540 621 31,000  Level Moncton Center
01:28AM 43.2333 -67.5333 58° Northeast 540 621 31,000  Level Moncton Center
01:29AM 43.3508 -67.3222 53° Northeast 538 619 31,000  Level Boston Center
01:30AM 43.4264 -67.1500 59° Northeast 538 619 31,000  Level Boston Center
01:36AM 43.8600 -66.1330 59° Northeast 534 615 31,000  Level FlightAware
01:36AM 43.9090 -66.0170 60° Northeast 529 609 31,000  Level FlightAware
01:37AM 43.9600 -65.8960 60° Northeast 528 608 31,000  Level FlightAware
01:38AM 44.0030 -65.7950 59° Northeast 527 606 31,000  Level FlightAware
01:38AM 44.0530 -65.6760 60° Northeast 526 605 31,000  Level FlightAware
01:39AM 44.1070 -65.5450 60° Northeast 523 602 31,000  Level FlightAware
01:39AM 44.1450 -65.4550 60° Northeast 523 602 31,000  Level FlightAware
01:40AM 44.1990 -65.3240 60° Northeast 526 605 31,000  Level FlightAware
01:41AM 44.2540 -65.1920 60° Northeast 526 605 31,000  Level FlightAware
01:42AM 44.2970 -65.0880 60° Northeast 527 606 31,000  Level FlightAware
01:42AM 44.3460 -64.9680 60° Northeast 525 604 31,000  Level FlightAware
01:43AM 44.3990 -64.8370 60° Northeast 525 604 31,000  Level FlightAware
01:44AM 44.4400 -64.7360 60° Northeast 526 605 31,000  Level FlightAware
01:44AM 44.4950 -64.5990 61° Northeast 527 606 31,000  Level FlightAware
01:45AM 44.5480 -64.4680 60° Northeast 527 606 31,000  Level FlightAware
01:46AM 44.6010 -64.3340 61° Northeast 526 605 31,000  Level FlightAware
01:46AM 44.6390 -64.2390 61° Northeast 527 606 31,000  Level FlightAware
01:47AM 44.6920 -64.1070 61° Northeast 525 604 31,000  Level FlightAware
01:48AM 44.7370 -63.9930 61° Northeast 525 604 31,000  Level FlightAware
01:48AM 44.7890 -63.8590 61° Northeast 523 602 31,000  Level FlightAware
01:49AM 44.8440 -63.7190 61° Northeast 520 598 31,000  Level FlightAware
01:50AM 44.9050 -63.5620 61° Northeast 517 595 31,000  Level FlightAware
01:51AM 44.9630 -63.4140 61° Northeast 516 594 31,000  Level FlightAware
01:51AM 44.9940 -63.3320 62° Northeast 510 587 31,000  Level FlightAware
01:52AM 45.0400 -63.2090 62° Northeast 510 587 31,000  Level FlightAware
01:53AM 45.0740 -63.1190 62° Northeast 510 587 31,000  Level FlightAware
01:53AM 45.1090 -63.0260 62° Northeast 510 587 31,000  Level FlightAware
01:54AM 45.1540 -62.9060 62° Northeast 510 587 31,000  Level FlightAware
01:55AM 45.1880 -62.8150 62° Northeast 510 587 31,000  Level FlightAware
01:56AM 45.2330 -62.6940 62° Northeast 510 587 31,000  Level FlightAware
01:56AM 45.2670 -62.6040 62° Northeast 510 587 31,000  Level FlightAware
01:57AM 45.3120 -62.4830 62° Northeast 510 587 31,000  Level FlightAware
01:58AM 45.3460 -62.3920 62° Northeast 510 587 31,000  Level FlightAware
01:58AM 45.3920 -62.2690 62° Northeast 510 587 31,000  Level FlightAware
01:59AM 45.4260 -62.1780 62° Northeast 510 587 31,000  Level FlightAware
01:59AM 45.4480 -62.1170 63° Northeast 510 587 31,000  Level FlightAware
02:03AM 45.7600 -61.2620 62° Northeast 512 589 31,000  Level FlightAware
02:04AM 45.8090 -61.1250 63° Northeast 512 589 31,000  Level FlightAware
02:05AM 45.8580 -60.9860 63° Northeast 512 589 31,000  Level FlightAware
02:05AM 45.8970 -60.8760 63° Northeast 513 590 31,000  Level FlightAware
02:06AM 45.9380 -60.7580 63° Northeast 514 592 31,000  Level FlightAware
02:07AM 45.9860 -60.6210 63° Northeast 515 593 31,000  Level FlightAware
02:07AM 46.0250 -60.5090 63° Northeast 515 593 31,000  Level FlightAware
02:08AM 46.0630 -60.3990 64° Northeast 515 593 31,000  Level FlightAware
02:08AM 46.1100 -60.2640 63° Northeast 515 593 31,000  Level FlightAware
02:09AM 46.1500 -60.1450 64° Northeast 514 592 31,000  Level FlightAware
02:10AM 46.1970 -60.0080 64° Northeast 515 593 31,000  Level FlightAware
02:11AM 46.2410 -59.8780 64° Northeast 515 593 31,000  Level FlightAware
02:11AM 46.2880 -59.7390 64° Northeast 514 592 31,000  Level FlightAware
02:12AM 46.3300 -59.6140 64° Northeast 513 590 31,000  Level FlightAware
02:13AM 46.3730 -59.4880 64° Northeast 513 590 31,000  Level FlightAware
02:13AM 46.4180 -59.3520 64° Northeast 513 590 31,000  Level FlightAware
02:14AM 46.4590 -59.2270 65° Northeast 512 589 31,000  Level FlightAware
02:15AM 46.4990 -59.1060 64° Northeast 511 588 31,000  Level FlightAware
02:15AM 46.5450 -58.9670 64° Northeast 511 588 31,000  Level FlightAware
02:16AM 46.5850 -58.8430 65° Northeast 510 587 31,000  Level FlightAware
02:17AM 46.6300 -58.7060 64° Northeast 509 586 31,000  Level FlightAware
02:18AM 46.6760 -58.5640 65° Northeast 510 587 31,000  Level FlightAware
02:18AM 46.7130 -58.4480 65° Northeast 510 587 31,000  Level FlightAware
02:19AM 46.7540 -58.3220 65° Northeast 510 587 31,000  Level FlightAware
02:20AM 46.7970 -58.1840 65° Northeast 510 587 31,000  Level FlightAware
02:21AM 46.8550 -58.0040 65° Northeast 512 589 31,000  Level FlightAware
02:22AM 46.8960 -57.8760 65° Northeast 512 589 31,000 60 Level FlightAware
02:23AM 46.9800 -57.6030 66° East 517 595 31,200 480 Climbing FlightAware
02:23AM 47.0200 -57.4730 66° East 517 595 32,000 600 Climbing FlightAware
02:24AM 47.0560 -57.3550 66° East 515 593 32,000  Level FlightAware
02:25AM 47.1040 -57.1970 66° East 509 586 32,000  Level FlightAware
02:26AM 47.1440 -57.0660 66° East 505 581 32,000  Level FlightAware
02:26AM 47.1870 -56.9250 66° East 504 580 32,000  Level FlightAware
02:27AM 47.2250 -56.7980 66° East 504 580 32,000  Level FlightAware
02:28AM 47.2680 -56.6540 66° East 506 582 32,000  Level FlightAware
02:28AM 47.3050 -56.5270 67° East 507 583 32,000  Level FlightAware
02:29AM 47.3660 -56.3210 66° East 508 585 32,000  Level FlightAware
02:30AM 47.4070 -56.1800 67° East 508 585 32,000  Level FlightAware
02:31AM 47.4460 -56.0480 66° East 508 585 32,000  Level FlightAware
02:32AM 47.4820 -55.9210 67° East 509 586 32,000  Level FlightAware
02:32AM 47.5240 -55.7760 67° East 511 588 32,000  Level FlightAware
02:33AM 47.5610 -55.6470 67° East 512 589 32,000  Level FlightAware
02:34AM 47.5960 -55.5230 67° East 512 589 32,000  Level FlightAware
02:34AM 47.6390 -55.3730 67° East 512 589 32,000  Level FlightAware
02:35AM 47.6800 -55.2250 68° East 513 590 32,000  Level FlightAware
02:36AM 47.7110 -55.1140 67° East 513 590 32,000  Level FlightAware
02:37AM 47.7570 -54.9520 67° East 514 592 32,000  Level FlightAware
02:37AM 47.7880 -54.8360 68° East 516 594 32,000  Level FlightAware
02:38AM 47.8280 -54.6940 67° East 517 595 32,000  Level FlightAware
02:39AM 47.8700 -54.5390 68° East 519 597 32,000  Level FlightAware
02:39AM 47.9060 -54.4060 68° East 518 596 32,000  Level FlightAware
02:40AM 47.9470 -54.2550 68° East 517 595 32,000  Level FlightAware
02:41AM 47.9940 -54.0780 68° East 514 592 32,000  Level FlightAware
02:42AM 48.0290 -53.9460 68° East 510 587 32,000  Level FlightAware
02:42AM 48.0590 -53.8330 68° East 508 585 32,000  Level FlightAware
02:43AM 48.1060 -53.6560 68° East 506 582 32,000  Level FlightAware
02:44AM 48.1430 -53.5150 68° East 506 582 32,000  Level FlightAware
02:45AM 48.1770 -53.3820 69° East 506 582 32,000  Level FlightAware
02:45AM 48.2140 -53.2390 69° East 506 582 32,000  Level FlightAware
02:46AM 48.2480 -53.1070 69° East 507 583 32,000  Level FlightAware
02:46AM 48.2780 -52.9910 69° East 508 585 32,000  Level FlightAware
02:47AM 48.3160 -52.8410 69° East 510 587 32,000  Level FlightAware
02:48AM 48.3480 -52.7140 69° East 512 589 32,000  Level FlightAware
02:49AM 48.3790 -52.5890 69° East 511 588 32,000  Level FlightAware
02:49AM 48.4130 -52.4550 69° East 512 589 32,000  Level FlightAware
02:50AM 48.4450 -52.3260 69° East 511 588 32,000  Level FlightAware
02:51AM 48.4810 -52.1770 70° East 510 587 32,000  Level FlightAware
02:51AM 48.5140 -52.0430 70° East 509 586 32,000  Level FlightAware
02:52AM 48.5460 -51.9120 70° East 505 581 32,000  Level FlightAware
02:53AM 48.5830 -51.7590 70° East 501 577 32,000  Level FlightAware
02:53AM 48.6100 -51.6450 70° East 500 575 32,000  Level FlightAware
02:54AM 48.6420 -51.5130 70° East 497 572 32,000  Level FlightAware
02:55AM 48.6730 -51.3820 70° East 497 572 32,000  Level FlightAware
02:55AM 48.7080 -51.2350 70° East 497 572 32,000  Level FlightAware
02:56AM 48.7430 -51.0850 70° East 497 572 32,000  Level FlightAware
02:57AM 48.7730 -50.9570 70° East 495 570 32,000  Level FlightAware
02:57AM 48.7970 -50.8520 71° East 494 568 32,000  Level FlightAware
02:58AM 48.8220 -50.7490 70° East 494 568 32,000  Level FlightAware
02:59AM 48.8630 -50.5630 71° East 494 568 32,000  Level FlightAware
02:59AM 48.8900 -50.4450 71° East 493 567 32,000  Level FlightAware
03:00AM 48.9240 -50.2950 71° East 493 567 32,000  Level FlightAware
03:01AM 48.9460 -50.1940 72° East 493 567 32,000  Level FlightAware
03:02AM 48.9770 -50.0570 71° East 493 567 32,000  Level FlightAware
03:03AM 49.0130 -49.8980 71° East 493 567 32,000  Level FlightAware
03:03AM 49.0440 -49.7640 71° East 493 567 32,000  Level FlightAware
03:04AM 49.0660 -49.6630 72° East 493 567 32,000  Level FlightAware
03:05AM 49.0000 -50.0000 77° East 502 578 32,000  Level ETMS Enhanced Traffic Management System
03:05AM 49.0970 -49.5290 70° East 493 567 32,000  Level FlightAware
03:05AM 49.0667 -49.1833 77° East 500 575 32,000  Level Gander Center
03:05AM 49.1190 -49.4280 72° East 493 567 32,000  Level FlightAware
03:06AM 49.1500 -49.2910 71° East 493 567 32,000  Level FlightAware
03:06AM 49.1000 -48.9667 77° East 490 564 32,000  Level Gander Center
03:08AM 49.1468 -48.6948 75° East  Level FlightAware Approximate
03:15AM 49.4011 -47.1424 76° East  Level FlightAware Approximate
03:16AM 49.4376 -46.9200 76° East  Level FlightAware Approximate
03:17AM 49.4736 -46.6973 76° East  Level FlightAware Approximate
03:18AM 49.5092 -46.4743 76° East  Level FlightAware Approximate
03:19AM 49.5444 -46.2509 76° East  Level FlightAware Approximate
03:20AM 49.5791 -46.0273 76° East  Level FlightAware Approximate
03:21AM 49.6134 -45.8033 77° East  Level FlightAware Approximate
03:22AM 49.6473 -45.5790 77° East  Level FlightAware Approximate
03:23AM 49.6807 -45.3544 77° East  Level FlightAware Approximate
03:24AM 49.7137 -45.1295 77° East  Level FlightAware Approximate
03:25AM 49.7463 -44.9042 77° East  Level FlightAware Approximate
03:26AM 49.7784 -44.6787 77° East  Level FlightAware Approximate
03:27AM 49.8101 -44.4529 78° East  Level FlightAware Approximate
03:28AM 49.8413 -44.2268 78° East  Level FlightAware Approximate
03:29AM 49.8722 -44.0004 78° East  Level FlightAware Approximate
03:30AM 49.9025 -43.7737 78° East  Level FlightAware Approximate
03:31AM 49.9324 -43.5467 78° East  Level FlightAware Approximate
03:32AM 49.9615 -43.3232 79° East  Level FlightAware Approximate
03:33AM 49.9900 -43.0994 79° East  Level FlightAware Approximate
03:34AM 50.0182 -42.8753 79° East  Level FlightAware Approximate
03:35AM 50.0459 -42.6509 79° East  Level FlightAware Approximate
03:36AM 50.0732 -42.4263 79° East  Level FlightAware Approximate
03:37AM 50.1000 -42.2015 79° East  Level FlightAware Approximate
03:38AM 50.1264 -41.9764 80° East  Level FlightAware Approximate
03:39AM 50.1524 -41.7510 80° East  Level FlightAware Approximate
03:40AM 50.1780 -41.5255 80° East  Level FlightAware Approximate
03:41AM 50.2030 -41.2996 80° East  Level FlightAware Approximate
03:42AM 50.2277 -41.0736 80° East  Level FlightAware Approximate
03:43AM 50.2519 -40.8473 80° East  Level FlightAware Approximate
03:44AM 50.2757 -40.6207 81° East  Level FlightAware Approximate
03:45AM 50.2990 -40.3940 81° East  Level FlightAware Approximate
03:46AM 50.3219 -40.1670 81° East  Level FlightAware Approximate
03:47AM 50.3444 -39.9398 81° East  Level FlightAware Approximate
03:48AM 50.3664 -39.7124 81° East  Level FlightAware Approximate
03:49AM 50.3880 -39.4848 81° East  Level FlightAware Approximate
03:50AM 50.4091 -39.2570 82° East  Level FlightAware Approximate
03:51AM 50.4298 -39.0290 82° East  Level FlightAware Approximate
03:52AM 50.4501 -38.8008 82° East  Level FlightAware Approximate
03:53AM 50.4698 -38.5723 82° East  Level FlightAware Approximate
03:54AM 50.4892 -38.3433 82° East  Level FlightAware Approximate
03:55AM 50.5081 -38.1142 83° East  Level FlightAware Approximate
03:56AM 50.5266 -37.8848 83° East  Level FlightAware Approximate
03:57AM 50.5447 -37.6553 83° East  Level FlightAware Approximate
03:58AM 50.5622 -37.4255 83° East  Level FlightAware Approximate
03:59AM 50.5794 -37.1956 83° East  Level FlightAware Approximate
04:00AM 50.5960 -36.9656 83° East  Level FlightAware Approximate
04:01AM 50.6123 -36.7354 84° East  Level FlightAware Approximate
04:02AM 50.6280 -36.5050 84° East  Level FlightAware Approximate
04:03AM 50.6433 -36.2745 84° East  Level FlightAware Approximate
04:04AM 50.6582 -36.0438 84° East  Level FlightAware Approximate
04:05AM 50.6726 -35.8130 84° East  Level FlightAware Approximate
04:06AM 50.6865 -35.5821 84° East  Level FlightAware Approximate
04:07AM 50.7000 -35.3510 85° East  Level FlightAware Approximate
04:08AM 50.7130 -35.1198 85° East  Level FlightAware Approximate
04:09AM 50.7256 -34.8884 85° East  Level FlightAware Approximate
04:10AM 50.7377 -34.6569 85° East  Level FlightAware Approximate
04:11AM 50.7494 -34.4254 85° East  Level FlightAware Approximate
04:12AM 50.7606 -34.1936 86° East  Level FlightAware Approximate
04:13AM 50.7713 -33.9618 86° East  Level FlightAware Approximate
04:14AM 50.7816 -33.7299 86° East  Level FlightAware Approximate
04:15AM 50.7914 -33.4979 86° East  Level FlightAware Approximate
04:16AM 50.8008 -33.2658 86° East  Level FlightAware Approximate
04:17AM 50.8097 -33.0336 86° East  Level FlightAware Approximate
04:18AM 50.8181 -32.8013 87° East  Level FlightAware Approximate
04:19AM 50.8260 -32.5690 87° East  Level FlightAware Approximate
04:20AM 50.8336 -32.3365 87° East  Level FlightAware Approximate
04:21AM 50.8406 -32.1040 87° East  Level FlightAware Approximate
04:22AM 50.8472 -31.8714 87° East  Level FlightAware Approximate
04:23AM 50.8533 -31.6388 88° East  Level FlightAware Approximate
04:24AM 50.8590 -31.4061 88° East  Level FlightAware Approximate
04:25AM 50.8642 -31.1733 88° East  Level FlightAware Approximate
04:26AM 50.8689 -30.9405 88° East  Level FlightAware Approximate
04:27AM 50.8732 -30.7077 88° East  Level FlightAware Approximate
04:28AM 50.8770 -30.4748 88° East  Level FlightAware Approximate
04:29AM 50.8803 -30.2419 89° East  Level FlightAware Approximate
04:30AM 50.8832 -30.0089 89° East  Level FlightAware Approximate
04:31AM 50.8852 -29.7759 89° East  Level FlightAware Approximate
04:32AM 50.8866 -29.5429 89° East  Level FlightAware Approximate
04:33AM 50.8876 -29.3103 90° East  Level FlightAware Approximate
04:34AM 50.8881 -29.0777 90° East  Level FlightAware Approximate
04:35AM 50.8881 -28.8451 90° East  Level FlightAware Approximate
04:36AM 50.8877 -28.6124 90° East  Level FlightAware Approximate
04:37AM 50.8868 -28.3798 90° East  Level FlightAware Approximate
04:38AM 50.8855 -28.1472 90° East  Level FlightAware Approximate
04:39AM 50.8837 -27.9146 91° East  Level FlightAware Approximate
04:40AM 50.8814 -27.6821 91° East  Level FlightAware Approximate
04:41AM 50.8787 -27.4495 91° East  Level FlightAware Approximate
04:42AM 50.8755 -27.2170 91° East  Level FlightAware Approximate
04:43AM 50.8718 -26.9845 91° East  Level FlightAware Approximate
04:44AM 50.8677 -26.7521 92° East  Level FlightAware Approximate
04:45AM 50.8632 -26.5197 92° East  Level FlightAware Approximate
04:46AM 50.8581 -26.2873 92° East  Level FlightAware Approximate
04:47AM 50.8526 -26.0550 92° East  Level FlightAware Approximate
04:48AM 50.8467 -25.8228 92° East  Level FlightAware Approximate
04:49AM 50.8402 -25.5906 92° East  Level FlightAware Approximate
04:50AM 50.8334 -25.3585 93° East  Level FlightAware Approximate
04:51AM 50.8260 -25.1265 93° East  Level FlightAware Approximate
04:52AM 50.8182 -24.8945 93° East  Level FlightAware Approximate
04:53AM 50.8100 -24.6626 93° East  Level FlightAware Approximate
04:54AM 50.8012 -24.4308 93° East  Level FlightAware Approximate
04:55AM 50.7921 -24.1991 93° East  Level FlightAware Approximate
04:56AM 50.7824 -23.9675 94° East  Level FlightAware Approximate
04:57AM 50.7723 -23.7360 94° East  Level FlightAware Approximate
04:58AM 50.7618 -23.5045 94° East  Level FlightAware Approximate
04:59AM 50.7508 -23.2732 94° East  Level FlightAware Approximate
05:00AM 50.7393 -23.0420 94° East  Level FlightAware Approximate
05:01AM 50.7274 -22.8109 95° East  Level FlightAware Approximate
05:02AM 50.7150 -22.5800 95° East  Level FlightAware Approximate
05:03AM 50.7021 -22.3491 95° East  Level FlightAware Approximate
05:04AM 50.6889 -22.1184 95° East  Level FlightAware Approximate
05:05AM 50.6751 -21.8878 95° East  Level FlightAware Approximate
05:06AM 50.6612 -21.6573 95° East  Level FlightAware Approximate
05:07AM 50.6471 -21.4269 95° East  Level FlightAware Approximate
05:08AM 50.6326 -21.1966 96° East  Level FlightAware Approximate
05:09AM 50.6177 -20.9665 96° East  Level FlightAware Approximate
05:10AM 50.6023 -20.7365 96° East  Level FlightAware Approximate
05:11AM 50.5864 -20.5063 96° East  Level FlightAware Approximate
05:12AM 50.5701 -20.2763 96° East  Level FlightAware Approximate
05:13AM 50.5534 -20.0463 96° East  Level FlightAware Approximate
05:14AM 50.5361 -19.8166 97° East  Level FlightAware Approximate
05:15AM 50.5185 -19.5870 97° East  Level FlightAware Approximate
05:16AM 50.5003 -19.3576 97° East  Level FlightAware Approximate
05:17AM 50.4817 -19.1284 97° East  Level FlightAware Approximate
05:18AM 50.4627 -18.8994 97° East  Level FlightAware Approximate
05:19AM 50.4432 -18.6705 98° East  Level FlightAware Approximate
05:20AM 50.4233 -18.4419 98° East  Level FlightAware Approximate
05:21AM 50.4029 -18.2134 98° East  Level FlightAware Approximate
05:22AM 50.3821 -17.9851 98° East  Level FlightAware Approximate
05:23AM 50.3609 -17.7571 98° East  Level FlightAware Approximate
05:24AM 50.3391 -17.5292 98° East  Level FlightAware Approximate
05:25AM 50.3170 -17.3015 99° East  Level FlightAware Approximate
05:26AM 50.2944 -17.0741 99° East  Level FlightAware Approximate
05:27AM 50.2713 -16.8469 99° East  Level FlightAware Approximate
05:28AM 50.2478 -16.6199 99° East  Level FlightAware Approximate
05:29AM 50.2239 -16.3931 99° East  Level FlightAware Approximate
05:30AM 50.1996 -16.1666 99° East  Level FlightAware Approximate
05:31AM 50.1747 -15.9403 100° East  Level FlightAware Approximate
05:32AM 50.1495 -15.7142 100° East  Level FlightAware Approximate
05:33AM 50.1238 -15.4884 100° East  Level FlightAware Approximate
05:34AM 50.0977 -15.2628 100° East  Level FlightAware Approximate
05:35AM 50.0711 -15.0375 100° East  Level FlightAware Approximate
05:36AM 50.0442 -14.8124 100° East  Level FlightAware Approximate
05:37AM 50.0168 -14.5875 101° East  Level FlightAware Approximate
05:38AM 49.9890 -14.3630 101° East  Level FlightAware Approximate
05:39AM 49.9608 -14.1386 101° East  Level FlightAware Approximate
05:40AM 49.9321 -13.9146 101° East  Level FlightAware Approximate
05:41AM 49.9030 -13.6908 101° East  Level FlightAware Approximate
05:42AM 49.8735 -13.4672 102° East  Level FlightAware Approximate
05:43AM 49.8435 -13.2440 102° East  Level FlightAware Approximate
05:44AM 49.8131 -13.0210 102° East  Level FlightAware Approximate
05:45AM 49.7823 -12.7983 102° East  Level FlightAware Approximate
05:46AM 49.7511 -12.5759 102° East  Level FlightAware Approximate
05:47AM 49.7194 -12.3538 102° East  Level FlightAware Approximate
05:47AM 49.3700 -9.7820 103° East 596 686 33,000  Level FlightAware
05:47AM 49.3540 -9.6760 103° East 596 686 33,000  Level FlightAware
05:48AM 49.6874 -12.1320 103° East  Level FlightAware Approximate
05:48AM 49.3190 -9.4690 104° East 593 682 33,000  Level FlightAware
05:49AM 49.2920 -9.2990 104° East 592 681 33,000  Level FlightAware
05:49AM 49.2730 -9.1810 104° East 591 680 33,000  Level FlightAware
05:50AM 49.2388 -8.9860 104° East 486 559 33,000  Level FlightAware UK
05:50AM 49.2410 -8.9920 104° East 592 681 33,000  Level FlightAware
05:51AM 49.1986 -8.7428 104° East 486 559 33,000  Level FlightAware UK
05:51AM 49.2040 -8.7670 104° East 590 679 33,000  Level FlightAware
05:52AM 49.1800 -8.6250 104° East 589 678 33,000  Level FlightAware
05:52AM 49.1470 -8.4350 105° East 590 679 33,000  Level FlightAware
05:53AM 49.1162 -8.2590 105° East 486 559 33,000  Level FlightAware UK
05:53AM 49.1210 -8.2830 105° East 589 678 33,000  Level FlightAware
05:54AM 49.0940 -8.1270 105° East 589 678 33,000  Level FlightAware
05:55AM 49.0530 -7.8969 105° East 484 557 33,000  Level FlightAware UK
05:55AM 49.0610 -7.9380 105° East 589 678 33,000  Level FlightAware
05:55AM 49.0330 -7.7780 105° East 590 679 33,000 60 Level FlightAware
05:56AM 48.9960 -7.6020 108° East 590 679 33,100 600 Climbing FlightAware
05:57AM 48.9476 -7.4268 108° East 492 566 33,800 1,200 Climbing FlightAware UK
05:57AM 48.9510 -7.4550 108° East 591 680 33,900 1,080 Climbing FlightAware
05:57AM 48.9080 -7.3120 115° Southeast 595 685 34,600 720 Climbing FlightAware
05:58AM 48.8419 -7.0871 115° Southeast 494 568 35,000 480 Climbing FlightAware UK
05:58AM 48.8510 -7.1330 115° Southeast 598 688 35,000  Level FlightAware
05:59AM 48.7963 -6.9528 115° Southeast 492 566 35,000  Level FlightAware UK
05:59AM 48.8010 -6.9850 115° Southeast 596 686 35,000  Level FlightAware
05:59AM 48.7470 -6.8200 116° Southeast 595 685 35,000  Level FlightAware
06:00AM 48.6970 -6.6690 116° Southeast 593 682 35,000  Level FlightAware
06:00AM 48.6852 -6.6164 116° Southeast 488 562 35,000  Level FlightAware UK
06:01AM 48.6482 -6.5047 116° Southeast 490 564 35,000  Level FlightAware UK
06:01AM 48.6490 -6.5220 116° Southeast 593 682 35,000  Level FlightAware
06:01AM 48.5990 -6.3710 117° Southeast 592 681 35,000  Level FlightAware
06:02AM 48.5470 -6.2160 117° Southeast 593 682 35,000  Level FlightAware
06:02AM 48.5296 -6.1478 117° Southeast 490 564 35,000  Level FlightAware UK
06:03AM 48.4921 -6.0368 117° Southeast 490 564 35,000  Level FlightAware UK
06:03AM 48.4900 -6.0460 117° Southeast 593 682 35,000  Level FlightAware
06:04AM 48.4470 -5.9200 117° Southeast 597 687 35,000  Level FlightAware
06:04AM 48.3783 -5.7037 117° Southeast 492 566 35,000  Level FlightAware UK
06:04AM 48.3880 -5.7450 117° Southeast 598 688 35,000  Level FlightAware
06:05AM 48.3290 -5.5750 118° Southeast 597 687 35,000  Level FlightAware
06:06AM 48.2790 -5.4300 117° Southeast 596 686 35,000  Level FlightAware
06:06AM 48.2181 -5.2403 117° Southeast 490 564 35,000  Level FlightAware UK
06:06AM 48.2180 -5.2550 117° Southeast 596 686 35,000  Level FlightAware
06:07AM 48.1670 -5.1080 117° Southeast 597 687 35,000  Level FlightAware
06:08AM 48.1100 -4.9460 118° Southeast 596 686 35,000  Level FlightAware
06:09AM 48.0590 -4.8020 118° Southeast 596 686 35,000  Level FlightAware
06:09AM 48.0010 -4.6390 118° Southeast 595 685 35,000  Level FlightAware
06:10AM 47.9500 -4.4950 118° Southeast 595 685 35,000  Level FlightAware
06:11AM 47.8800 -4.2990 118° Southeast 595 685 35,000  Level FlightAware
06:12AM 47.8240 -4.1450 118° Southeast 595 685 35,000  Level FlightAware
06:12AM 47.7730 -4.0060 119° Southeast 594 684 35,000  Level FlightAware
06:13AM 47.7100 -3.8330 118° Southeast 595 685 35,000  Level FlightAware
06:14AM 47.6580 -3.6910 118° Southeast 595 685 35,000  Level FlightAware
06:14AM 47.6110 -3.5630 119° Southeast 595 685 35,000  Level FlightAware
06:15AM 47.5550 -3.4140 119° Southeast 594 684 35,000  Level FlightAware
06:16AM 47.5010 -3.2690 119° Southeast 593 682 35,000  Level FlightAware
06:16AM 47.4470 -3.1240 119° Southeast 590 679 35,000  Level FlightAware
06:17AM 47.3890 -2.9730 120° Southeast 588 677 35,000  Level FlightAware
06:18AM 47.3360 -2.8330 119° Southeast 588 677 35,000  Level FlightAware
06:18AM 47.2760 -2.6740 119° Southeast 587 676 35,000  Level FlightAware
06:19AM 47.2280 -2.5480 119° Southeast 587 676 35,000  Level FlightAware
06:19AM 47.2010 -2.4790 120° Southeast 587 676 35,000  Level FlightAware
06:20AM 47.1190 -2.2680 120° Southeast 586 674 35,000  Level FlightAware
06:21AM 47.0380 -2.0590 120° Southeast 586 674 35,000  Level FlightAware
06:22AM 46.9810 -1.9140 120° Southeast 585 673 35,000  Level FlightAware
06:23AM 46.9490 -1.8330 120° Southeast 585 673 35,000  Level FlightAware
06:24AM 46.8520 -1.5900 120° Southeast 582 670 35,000  Level FlightAware
06:24AM 46.7980 -1.4540 120° Southeast 583 671 35,000  Level FlightAware
06:25AM 46.7380 -1.3050 120° Southeast 582 670 35,000  Level FlightAware
06:26AM 46.6640 -1.1160 120° Southeast 583 671 35,000  Level FlightAware
06:27AM 46.6320 -0.9660 107° East 582 670 35,000  Level FlightAware
06:28AM 46.5930 -0.7970 109° East 581 669 35,000  Level FlightAware
06:29AM 46.5370 -0.5810 111° Southeast 581 669 35,000  Level FlightAware
06:29AM 46.5150 -0.4610 105° East 576 663 35,000  Level FlightAware
06:30AM 46.4940 -0.3160 102° East 576 663 35,000  Level FlightAware
06:30AM 46.4700 -0.1610 103° East 575 662 35,000  Level FlightAware
06:31AM 46.4470 -0.0060 102° East 574 661 35,000  Level FlightAware
06:32AM 46.4220 0.1570 102° East 574 661 35,000  Level FlightAware
06:32AM 46.4050 0.2670 103° East 573 659 35,000  Level FlightAware
06:33AM 46.3790 0.4430 102° East 573 659 35,000  Level FlightAware
06:34AM 46.3570 0.5880 102° East 572 658 35,000  Level FlightAware
06:34AM 46.3330 0.7130 105° East 573 659 35,000  Level FlightAware
06:35AM 46.2870 0.8770 112° Southeast 570 656 35,000  Level FlightAware
06:36AM 46.2410 1.0150 116° Southeast 569 655 35,000  Level FlightAware
06:37AM 46.1880 1.1750 116° Southeast 565 650 35,000  Level FlightAware
06:37AM 46.1370 1.3240 116° Southeast 561 646 35,000  Level FlightAware
06:38AM 46.0900 1.4620 116° Southeast 555 639 35,000  Level FlightAware
06:39AM 46.0440 1.5970 116° Southeast 554 638 35,000  Level FlightAware
06:39AM 45.9980 1.7290 117° Southeast 549 632 35,000  Level FlightAware
06:40AM 45.9460 1.8790 116° Southeast 546 628 35,000  Level FlightAware
06:41AM 45.8960 2.0210 117° Southeast 543 625 35,000  Level FlightAware
06:41AM 45.8550 2.1410 116° Southeast 540 621 35,000  Level FlightAware
06:42AM 45.8030 2.2900 117° Southeast 537 618 35,000  Level FlightAware
06:43AM 45.7620 2.4090 116° Southeast 536 617 35,000  Level FlightAware
06:44AM 45.7130 2.5530 116° Southeast 535 616 35,000  Level FlightAware
06:44AM 45.6700 2.6790 116° Southeast 533 613 35,000  Level FlightAware
06:45AM 45.6260 2.8080 116° Southeast 532 612 35,000  Level FlightAware
06:46AM 45.5790 2.9460 116° Southeast 529 609 35,000  Level FlightAware
06:46AM 45.5330 3.0770 117° Southeast 525 604 35,000  Level FlightAware
06:47AM 45.4860 3.2140 116° Southeast 523 602 35,000  Level FlightAware
06:48AM 45.4440 3.3350 116° Southeast 525 604 35,000  Level FlightAware
06:48AM 45.3990 3.4640 116° Southeast 523 602 35,000  Level FlightAware
06:49AM 45.3500 3.6040 116° Southeast 525 604 35,000  Level FlightAware
06:50AM 45.3080 3.7270 116° Southeast 525 604 35,000  Level FlightAware
06:51AM 45.2590 3.8680 116° Southeast 524 603 35,000  Level FlightAware
06:51AM 45.2160 3.9900 117° Southeast 522 601 35,000  Level FlightAware
06:52AM 45.1700 4.1250 116° Southeast 518 596 35,000  Level FlightAware
06:53AM 45.1280 4.2480 116° Southeast 517 595 35,000  Level FlightAware
06:53AM 45.0880 4.3680 115° Southeast 516 594 35,000  Level FlightAware
06:54AM 45.0470 4.4910 115° Southeast 515 593 35,000  Level FlightAware
06:55AM 44.9990 4.6290 116° Southeast 513 590 35,000  Level FlightAware
06:55AM 44.9630 4.7340 116° Southeast 511 588 35,000  Level FlightAware
06:56AM 44.9200 4.8520 117° Southeast 509 586 35,000  Level FlightAware
06:57AM 44.8750 4.9780 117° Southeast 508 585 35,000  Level FlightAware
06:57AM 44.8280 5.1070 117° Southeast 509 586 35,000  Level FlightAware
06:58AM 44.7810 5.2380 117° Southeast 509 586 35,000  Level FlightAware
06:59AM 44.7270 5.3470 125° Southeast 502 578 35,000  Level FlightAware
06:59AM 44.6720 5.4360 131° Southeast 502 578 35,000  Level FlightAware
07:00AM 44.6090 5.5420 130° Southeast 503 579 35,000  Level FlightAware
07:01AM 44.5240 5.6890 129° Southeast 506 582 35,000  Level FlightAware
07:02AM 44.4660 5.7870 130° Southeast 508 585 35,000  Level FlightAware
07:03AM 44.3830 5.9200 131° Southeast 511 588 35,000  Level FlightAware
07:04AM 44.2930 6.0660 131° Southeast 516 594 35,000  Level FlightAware
07:04AM 44.2300 6.1670 131° Southeast 519 597 35,000  Level FlightAware
07:05AM 44.1630 6.2760 131° Southeast 521 600 35,000  Level FlightAware
07:05AM 44.1180 6.3490 131° Southeast 523 602 35,000  Level FlightAware
07:06AM 44.0640 6.4380 130° Southeast 524 603 35,000  Level FlightAware
07:07AM 43.9640 6.6080 129° Southeast 530 610 35,000  Level FlightAware
07:08AM 43.9000 6.7170 129° Southeast 530 610 35,000  Level FlightAware
07:08AM 43.8460 6.8100 129° Southeast 531 611 35,000  Level FlightAware
07:09AM 43.7700 6.9490 127° Southeast 533 613 35,000  Level FlightAware
07:10AM 43.7230 7.0530 122° Southeast 535 616 35,000  Level FlightAware
07:11AM 43.6490 7.2160 122° Southeast 534 615 35,000  Level FlightAware
07:12AM 43.5880 7.3510 122° Southeast 534 615 35,000  Level FlightAware
07:12AM 43.5440 7.4480 122° Southeast 534 615 35,000  Level FlightAware
07:13AM 43.4860 7.5850 120° Southeast 536 617 35,000  Level FlightAware
07:14AM 43.4380 7.7000 120° Southeast 541 623 35,000  Level FlightAware
07:14AM 43.3920 7.8120 119° Southeast 540 621 35,000  Level FlightAware
07:15AM 43.3400 7.9340 120° Southeast 542 624 35,000  Level FlightAware
07:16AM 43.2880 8.0620 119° Southeast 543 625 35,000  Level FlightAware
07:16AM 43.2290 8.2030 120° Southeast 541 623 35,000  Level FlightAware
07:17AM 43.1980 8.2760 120° Southeast 540 621 35,000  Level FlightAware
07:18AM 43.1400 8.4150 120° Southeast 536 617 35,000  Level FlightAware
07:18AM 43.0750 8.5740 119° Southeast 528 608 35,000  Level FlightAware
07:19AM 43.0280 8.6910 119° Southeast 525 604 35,000  Level FlightAware
07:20AM 42.9900 8.7910 117° Southeast 520 598 35,000  Level FlightAware
07:21AM 42.9330 8.9330 119° Southeast 511 588 35,000  Level FlightAware
07:21AM 42.8830 9.0570 119° Southeast 506 582 35,000  Level FlightAware
07:22AM 42.8370 9.1690 119° Southeast 504 580 35,000  Level FlightAware
07:23AM 42.7720 9.3290 119° Southeast 504 580 35,000 300 Level FlightAware
07:24AM 42.7190 9.4600 119° Southeast 511 588 35,600 840 Climbing FlightAware
07:25AM 42.6520 9.6030 122° Southeast 507 583 36,500 840 Climbing FlightAware
07:25AM 42.5880 9.7130 128° Southeast 501 577 37,000 300 Climbing FlightAware
07:26AM 42.5230 9.8180 130° Southeast 499 574 37,000  Level FlightAware
07:27AM 42.4670 9.9140 128° Southeast 501 577 37,000  Level FlightAware
07:27AM 42.4030 10.0290 127° Southeast 507 583 37,000  Level FlightAware
07:28AM 42.3540 10.1310 123° Southeast 510 587 37,000  Level FlightAware
07:29AM 42.3190 10.2050 123° Southeast 513 590 37,000  Level FlightAware
07:29AM 42.2580 10.3300 123° Southeast 515 593 37,000  Level FlightAware
07:30AM 42.2060 10.4370 123° Southeast 516 594 37,000  Level FlightAware
07:31AM 42.1580 10.5340 124° Southeast 517 595 37,000  Level FlightAware
07:31AM 42.1030 10.6460 123° Southeast 520 598 37,000  Level FlightAware
07:32AM 42.0440 10.7650 124° Southeast 525 604 37,000  Level FlightAware
07:33AM 42.0010 10.8510 124° Southeast 527 606 37,000  Level FlightAware
07:33AM 41.9410 10.9720 124° Southeast 530 610 37,000  Level FlightAware
07:34AM 41.8860 11.0810 124° Southeast 534 615 37,000  Level FlightAware
07:35AM 41.8360 11.1810 124° Southeast 535 616 37,000  Level FlightAware
07:35AM 41.7780 11.2980 124° Southeast 536 617 37,000  Level FlightAware
07:36AM 41.7230 11.4070 124° Southeast 535 616 37,000  Level FlightAware
07:37AM 41.6620 11.5270 124° Southeast 534 615 37,000  Level FlightAware
07:37AM 41.6010 11.6470 124° Southeast 532 612 37,000  Level FlightAware
07:38AM 41.5490 11.7500 124° Southeast 531 611 37,000  Level FlightAware
07:39AM 41.4930 11.8600 124° Southeast 533 613 37,000  Level FlightAware
07:39AM 41.4310 11.9790 125° Southeast 535 616 37,000  Level FlightAware
07:40AM 41.3690 12.0990 125° Southeast 536 617 37,000  Level FlightAware
07:41AM 41.3110 12.2120 124° Southeast 539 620 37,000  Level FlightAware
07:42AM 41.2490 12.3320 124° Southeast 541 623 37,000  Level FlightAware
07:42AM 41.1910 12.4430 125° Southeast 542 624 37,000  Level FlightAware
07:43AM 41.1390 12.5530 122° Southeast 544 626 37,000  Level FlightAware
07:44AM 41.0850 12.6770 120° Southeast 542 624 37,000  Level FlightAware
07:44AM 41.0350 12.7920 120° Southeast 539 620 37,000  Level FlightAware
07:45AM 40.9750 12.9250 121° Southeast 533 613 37,000  Level FlightAware
07:46AM 40.9310 13.0220 121° Southeast 532 612 37,000  Level FlightAware
07:46AM 40.8700 13.1610 120° Southeast 531 611 37,000  Level FlightAware
07:47AM 40.8220 13.2680 121° Southeast 531 611 37,000  Level FlightAware
07:48AM 40.7690 13.3870 120° Southeast 532 612 37,000  Level FlightAware
07:49AM 40.7140 13.5100 121° Southeast 533 613 37,000  Level FlightAware
07:49AM 40.6640 13.6210 121° Southeast 532 612 37,000  Level FlightAware
07:50AM 40.6100 13.7410 121° Southeast 529 609 37,000  Level FlightAware
07:51AM 40.5530 13.8680 121° Southeast 526 605 37,000  Level FlightAware
07:51AM 40.5070 13.9700 121° Southeast 523 602 37,000  Level FlightAware
07:52AM 40.4510 14.0910 121° Southeast 521 600 37,000  Level FlightAware
07:53AM 40.4000 14.2030 121° Southeast 522 601 37,000  Level FlightAware
07:53AM 40.3620 14.2860 121° Southeast 521 600 37,000  Level FlightAware
07:54AM 40.3050 14.4110 121° Southeast 521 600 37,000  Level FlightAware
07:55AM 40.2530 14.5230 121° Southeast 522 601 37,000  Level FlightAware
07:55AM 40.2100 14.6160 121° Southeast 522 601 37,000  Level FlightAware
07:56AM 40.1570 14.7290 122° Southeast 522 601 37,000  Level FlightAware
07:57AM 40.1010 14.8490 121° Southeast 524 603 37,000  Level FlightAware
07:57AM 40.0480 14.9620 121° Southeast 526 605 37,000  Level FlightAware
07:58AM 39.9980 15.0700 121° Southeast 526 605 37,000  Level FlightAware
07:59AM 39.9410 15.1890 122° Southeast 528 608 37,000  Level FlightAware
07:59AM 39.8880 15.3030 121° Southeast 528 608 37,000  Level FlightAware
08:00AM 39.8360 15.4100 122° Southeast 528 608 37,000  Level FlightAware
08:01AM 39.7920 15.5030 122° Southeast 529 609 37,000  Level FlightAware
08:01AM 39.7360 15.6200 122° Southeast 527 606 37,000  Level FlightAware
08:02AM 39.6860 15.7240 122° Southeast 524 603 37,000  Level FlightAware
08:03AM 39.6400 15.8200 122° Southeast 523 602 37,000  Level FlightAware
08:03AM 39.5800 15.9420 123° Southeast 523 602 37,000  Level FlightAware
08:04AM 39.5330 16.0390 122° Southeast 524 603 37,000  Level FlightAware
08:05AM 39.4770 16.1550 122° Southeast 524 603 37,000  Level FlightAware
08:06AM 39.4220 16.2680 122° Southeast 525 604 37,000  Level FlightAware
08:06AM 39.3650 16.3840 122° Southeast 525 604 37,000  Level FlightAware
08:07AM 39.3130 16.4900 122° Southeast 524 603 37,000  Level FlightAware
08:08AM 39.2560 16.6050 123° Southeast 525 604 37,000  Level FlightAware
08:08AM 39.2040 16.7100 123° Southeast 526 605 37,000  Level FlightAware
08:09AM 39.1660 16.8210 114° Southeast 533 613 37,000  Level FlightAware
08:10AM 39.1310 16.9470 110° East 534 615 37,000  Level FlightAware
08:10AM 39.0910 17.0830 111° Southeast 532 612 37,000  Level FlightAware
08:11AM 39.0550 17.2080 110° East 533 613 37,000  Level FlightAware
08:12AM 39.0290 17.3040 109° East 532 612 37,000  Level FlightAware
08:12AM 38.9900 17.4480 109° East 532 612 37,000  Level FlightAware
08:13AM 38.9550 17.5730 110° East 532 612 37,000  Level FlightAware
08:14AM 38.9170 17.7040 110° East 531 611 37,000  Level FlightAware
08:15AM 38.8850 17.8190 110° East 531 611 37,000  Level FlightAware
08:15AM 38.8510 17.9400 110° East 531 611 37,000  Level FlightAware
08:16AM 38.8130 18.0710 110° East 530 610 37,000  Level FlightAware
08:17AM 38.7840 18.1750 110° East 531 611 37,000  Level FlightAware
08:17AM 38.7490 18.2980 110° East 533 613 37,000  Level FlightAware
08:18AM 38.7160 18.4120 110° East 535 616 37,000  Level FlightAware
08:19AM 38.6760 18.5510 110° East 535 616 37,000  Level FlightAware
08:19AM 38.6420 18.6680 110° East 536 617 37,000  Level FlightAware
08:22AM 38.5215 19.0519 112° Southeast  Level Estimated
08:22AM 38.5340 19.0430 112° Southeast 536 617 37,000  Level FlightAware
08:22AM 38.5080 19.1370 109° East 536 617 37,000  Level FlightAware
08:23AM 38.4360 19.3660 112° Southeast 537 618 37,000  Level FlightAware
08:24AM 38.4150 19.4360 111° Southeast 536 617 37,000  Level FlightAware
08:25AM 38.3520 19.6430 111° Southeast 534 615 37,000  Level FlightAware
08:26AM 38.3170 19.7600 111° Southeast 532 612 37,000  Level FlightAware
08:26AM 38.2790 19.8850 111° Southeast 530 610 37,000  Level FlightAware
08:27AM 38.2460 19.9910 112° Southeast 530 610 37,000  Level FlightAware
08:28AM 38.2060 20.1250 111° Southeast 529 609 37,000  Level FlightAware
08:28AM 38.1780 20.2170 111° Southeast 529 609 37,000  Level FlightAware
08:29AM 38.1400 20.3400 111° Southeast 528 608 37,000  Level FlightAware
08:30AM 38.1030 20.4600 111° Southeast 528 608 37,000  Level FlightAware
08:30AM 38.0760 20.5490 111° Southeast 528 608 37,000  Level FlightAware
08:31AM 38.0180 20.7270 112° Southeast 524 603 37,000  Level FlightAware
08:32AM 37.9760 20.8600 112° Southeast 521 600 37,000  Level FlightAware
08:33AM 37.9280 21.0120 112° Southeast 520 598 37,000  Level FlightAware
08:34AM 37.8740 21.1810 112° Southeast 519 597 37,000  Level FlightAware
08:34AM 37.8410 21.2840 112° Southeast 520 598 37,000  Level FlightAware
08:35AM 37.7990 21.4130 112° Southeast 522 601 37,000  Level FlightAware
08:36AM 37.7700 21.5050 112° Southeast 522 601 37,000  Level FlightAware
08:36AM 37.7280 21.6330 112° Southeast 524 603 37,000  Level FlightAware
08:37AM 37.6910 21.7460 112° Southeast 524 603 37,000  Level FlightAware
08:38AM 37.6640 21.8300 112° Southeast 525 604 37,000  Level FlightAware
08:38AM 37.6240 21.9510 113° Southeast 525 604 37,000  Level FlightAware
08:39AM 37.5820 22.0800 112° Southeast 527 606 37,000  Level FlightAware
08:42AM 37.4349 22.4910 114° Southeast  Level Estimated
08:43AM 37.3740 22.6595 114° Southeast  Level Estimated
08:44AM 37.3129 22.8277 115° Southeast  Level Estimated
08:44AM 37.3270 22.8390 115° Southeast 526 605 37,000  Level FlightAware
08:44AM 37.2920 22.9400 114° Southeast 526 605 37,000  Level FlightAware
08:45AM 37.2490 23.0670 113° Southeast 526 605 37,000  Level FlightAware
08:45AM 37.2170 23.1610 113° Southeast 526 605 37,000  Level FlightAware
08:46AM 37.1810 23.2640 114° Southeast 526 605 37,000  Level FlightAware
08:47AM 37.1460 23.3670 113° Southeast 527 606 37,000  Level FlightAware
08:47AM 37.1120 23.4640 114° Southeast 527 606 37,000  Level FlightAware
08:48AM 37.0790 23.5600 113° Southeast 527 606 37,000  Level FlightAware
08:48AM 37.0410 23.6690 114° Southeast 527 606 37,000  Level FlightAware
08:49AM 37.0100 23.7570 114° Southeast 528 608 37,000  Level FlightAware
08:50AM 36.9750 23.8550 114° Southeast 528 608 37,000  Level FlightAware
08:50AM 36.9440 23.9450 113° Southeast 528 608 37,000  Level FlightAware
08:51AM 36.9110 24.0380 114° Southeast 528 608 37,000  Level FlightAware
08:51AM 36.8720 24.1480 114° Southeast 529 609 37,000  Level FlightAware
08:52AM 36.8360 24.2490 114° Southeast 529 609 37,000  Level FlightAware
08:53AM 36.8000 24.3500 114° Southeast 530 610 37,000  Level FlightAware
08:53AM 36.7690 24.4350 114° Southeast 530 610 37,000  Level FlightAware
08:54AM 36.7330 24.5360 114° Southeast 530 610 37,000  Level FlightAware
08:54AM 36.6980 24.6340 114° Southeast 529 609 37,000  Level FlightAware
08:55AM 36.6610 24.7370 114° Southeast 529 609 37,000  Level FlightAware
08:55AM 36.6260 24.8330 114° Southeast 528 608 37,000  Level FlightAware
08:56AM 36.5900 24.9330 114° Southeast 528 608 37,000  Level FlightAware
08:57AM 36.5570 25.0220 115° Southeast 528 608 37,000  Level FlightAware
08:57AM 36.5120 25.1460 114° Southeast 529 609 37,000  Level FlightAware
08:58AM 36.4760 25.2430 115° Southeast 529 609 37,000  Level FlightAware
08:58AM 36.4440 25.3320 114° Southeast 528 608 37,000  Level FlightAware
08:59AM 36.4070 25.4320 115° Southeast 528 608 37,000  Level FlightAware
09:00AM 36.3700 25.5310 115° Southeast 528 608 37,000  Level FlightAware
09:00AM 36.3370 25.6200 115° Southeast 528 608 37,000  Level FlightAware
09:01AM 36.3000 25.7190 115° Southeast 528 608 37,000  Level FlightAware
09:01AM 36.2660 25.8110 115° Southeast 528 608 37,000  Level FlightAware
09:02AM 36.2290 25.9090 115° Southeast 527 606 37,000  Level FlightAware
09:03AM 36.1920 26.0080 115° Southeast 527 606 37,000  Level FlightAware
09:03AM 36.1590 26.0970 115° Southeast 526 605 37,000  Level FlightAware
09:04AM 36.1180 26.2040 115° Southeast 524 603 37,000  Level FlightAware
09:04AM 36.0830 26.2990 114° Southeast 523 602 37,000  Level FlightAware
09:05AM 36.0500 26.3840 116° Southeast 522 601 37,000  Level FlightAware
09:05AM 36.0130 26.4820 115° Southeast 520 598 37,000  Level FlightAware
09:06AM 35.9740 26.5830 115° Southeast 520 598 37,000  Level FlightAware
09:07AM 35.9390 26.6750 115° Southeast 519 597 37,000  Level FlightAware
09:07AM 35.9050 26.7650 115° Southeast 520 598 37,000  Level FlightAware
09:08AM 35.8670 26.8630 116° Southeast 521 600 37,000  Level FlightAware
09:09AM 35.8100 27.0110 115° Southeast 521 600 37,000  Level FlightAware
09:09AM 35.7770 27.1000 115° Southeast 521 600 37,000  Level FlightAware
09:10AM 35.7450 27.1830 115° Southeast 521 600 37,000  Level FlightAware
09:11AM 35.7130 27.2670 115° Southeast 521 600 37,000  Level FlightAware
09:11AM 35.6820 27.3500 115° Southeast 521 600 37,000  Level FlightAware
09:12AM 35.6480 27.4410 115° Southeast 521 600 37,000  Level FlightAware
09:13AM 35.6160 27.5250 115° Southeast 521 600 37,000  Level FlightAware
09:13AM 35.5840 27.6080 115° Southeast 521 600 37,000  Level FlightAware
09:14AM 35.5520 27.6920 115° Southeast 521 600 37,000  Level FlightAware
09:14AM 35.5230 27.7700 115° Southeast 521 600 37,000  Level FlightAware
09:15AM 35.3880 28.0820 118° Southeast 523 602 37,000  Level FlightAware
09:16AM 35.3440 28.1940 116° Southeast 526 605 37,000  Level FlightAware
09:17AM 35.3040 28.2920 117° Southeast 526 605 37,000  Level FlightAware
09:17AM 35.2700 28.3780 116° Southeast 526 605 37,000  Level FlightAware
09:18AM 35.2310 28.4740 116° Southeast 527 606 37,000  Level FlightAware
09:18AM 35.1940 28.5650 116° Southeast 527 606 37,000  Level FlightAware
09:19AM 35.1580 28.6540 116° Southeast 523 602 37,000  Level FlightAware
09:19AM 35.1300 28.7230 116° Southeast 524 603 37,000  Level FlightAware
09:20AM 35.0870 28.8280 117° Southeast 523 602 37,000  Level FlightAware
09:21AM 35.0480 28.9230 117° Southeast 523 602 37,000  Level FlightAware
09:21AM 35.0130 29.0080 117° Southeast 523 602 37,000  Level FlightAware
09:22AM 34.9780 29.0930 117° Southeast 524 603 37,000  Level FlightAware
09:22AM 34.9400 29.1910 115° Southeast 524 603 37,000  Level FlightAware
09:23AM 34.8960 29.2940 117° Southeast 525 604 37,000  Level FlightAware
09:24AM 34.8450 29.4170 117° Southeast 526 605 37,000  Level FlightAware
09:24AM 34.8040 29.5140 117° Southeast 530 610 37,000  Level FlightAware
09:25AM 34.7660 29.6060 117° Southeast 532 612 37,000  Level FlightAware
09:26AM 34.7270 29.7000 117° Southeast 533 613 37,000  Level FlightAware
09:26AM 34.6860 29.7970 117° Southeast 535 616 37,000  Level FlightAware
09:27AM 34.6390 29.9090 117° Southeast 536 617 37,000  Level FlightAware
09:28AM 34.5870 30.0310 117° Southeast 538 619 37,000  Level FlightAware
09:28AM 34.5410 30.1280 120° Southeast 538 619 37,000  Level FlightAware
09:29AM 34.4980 30.2150 121° Southeast 540 621 37,000  Level FlightAware
09:29AM 34.4500 30.3140 120° Southeast 540 621 37,000  Level FlightAware
09:30AM 34.4050 30.4080 120° Southeast 537 618 37,000  Level FlightAware
09:31AM 34.3540 30.5150 120° Southeast 541 623 37,000  Level FlightAware
09:31AM 34.3100 30.6070 120° Southeast 542 624 37,000  Level FlightAware
09:32AM 34.2660 30.7000 120° Southeast 541 623 37,000  Level FlightAware
09:32AM 34.2220 30.7920 120° Southeast 540 621 37,000  Level FlightAware
09:33AM 34.1780 30.8820 121° Southeast 539 620 37,000  Level FlightAware
09:34AM 34.1270 30.9880 120° Southeast 536 617 37,000  Level FlightAware
09:35AM 34.0680 31.1100 120° Southeast 536 617 37,000  Level FlightAware
09:35AM 34.0250 31.1980 121° Southeast 534 615 37,000  Level FlightAware
09:36AM 33.9780 31.2930 121° Southeast 534 615 37,000  Level FlightAware
09:36AM 33.9320 31.3860 121° Southeast 534 615 37,000  Level FlightAware
09:37AM 33.8910 31.4690 121° Southeast 533 613 37,000  Level FlightAware
09:37AM 33.8430 31.5680 120° Southeast 533 613 37,000  Level FlightAware
09:38AM 33.8050 31.6440 121° Southeast 532 612 37,000  Level FlightAware
09:38AM 33.7670 31.7210 121° Southeast 532 612 37,000  Level FlightAware
09:39AM 33.7230 31.8110 120° Southeast 532 612 37,000  Level FlightAware
09:40AM 33.6800 31.8970 121° Southeast 531 611 37,000  Level FlightAware
09:40AM 33.6220 32.0130 121° Southeast 532 612 37,000  Level FlightAware
09:41AM 33.5820 32.0920 121° Southeast 532 612 37,000  Level FlightAware
09:41AM 33.5370 32.1810 121° Southeast 532 612 37,000  Level FlightAware
09:42AM 33.4920 32.2730 120° Southeast 532 612 37,000 -420 Level FlightAware
09:43AM 33.4480 32.3600 121° Southeast 531 611 36,500 -1,200 Descending FlightAware
09:43AM 33.4030 32.4490 121° Southeast 533 613 35,600 -1,200 Descending FlightAware
09:44AM 33.3550 32.5430 121° Southeast 529 609 35,100 -900 Descending FlightAware
09:44AM 33.3080 32.6370 121° Southeast 518 596 34,500 -900 Descending FlightAware
09:45AM 33.2630 32.7240 122° Southeast 512 589 34,000 -1,500 Descending FlightAware
09:46AM 33.2140 32.8200 121° Southeast 507 583 32,700 -1,980 Descending FlightAware
09:46AM 33.1740 32.8980 121° Southeast 504 580 31,500 -1,980 Descending FlightAware
09:47AM 33.1280 32.9870 122° Southeast 491 565 30,200 -2,220 Descending FlightAware
09:48AM 33.0800 33.0810 121° Southeast 483 556 28,800 -1,500 Descending FlightAware
09:48AM 33.0440 33.1520 121° Southeast 478 550 28,500 -1,320 Descending FlightAware
09:49AM 33.0050 33.2290 121° Southeast 480 552 27,300 -2,640 Descending FlightAware
09:49AM 32.9600 33.3130 123° Southeast 439 505 25,300 -2,760 Descending FlightAware
09:50AM 32.9190 33.3920 122° Southeast 428 493 23,900 -2,220 Descending FlightAware
09:51AM 32.8850 33.4570 122° Southeast 417 480 22,700 -2,100 Descending FlightAware
09:51AM 32.8480 33.5290 121° Southeast 405 466 21,500 -1,920 Descending FlightAware
09:52AM 32.8120 33.5980 122° Southeast 393 452 20,400 -1,920 Descending FlightAware
09:52AM 32.7800 33.6590 122° Southeast 386 444 19,300 -1,860 Descending FlightAware
09:53AM 32.7460 33.7230 122° Southeast 379 436 18,300 -1,800 Descending FlightAware
09:54AM 32.7130 33.7850 122° Southeast 371 427 17,200 -1,800 Descending FlightAware
09:54AM 32.6810 33.8470 122° Southeast 363 418 16,200 -1,620 Descending FlightAware
09:55AM 32.6520 33.9020 122° Southeast 357 411 15,400 -1,620 Descending FlightAware
09:55AM 32.6210 33.9620 122° Southeast 350 403 14,400 -1,620 Descending FlightAware
09:56AM 32.5920 34.0160 123° Southeast 343 395 13,500 -1,620 Descending FlightAware
09:56AM 32.5620 34.0730 122° Southeast 336 387 12,600 -1,560 Descending FlightAware
09:57AM 32.5320 34.1290 122° Southeast 329 379 11,700 -1,500 Descending FlightAware
09:58AM 32.4980 34.1810 128° Southeast 339 390 10,800 -1,200 Descending FlightAware
09:58AM 32.4650 34.2200 135° Southeast 337 388 10,400 -360 Descending FlightAware
09:59AM 32.4270 34.2640 136° Southeast 337 388 10,400 -840 Level FlightAware
09:59AM 32.3890 34.3080 136° Southeast 301 346 9,400 -1,740 Descending FlightAware
10:00AM 32.3740 34.3260 135° Southeast 299 344 9,000 -600 Descending FlightAware
10:00AM 32.3510 34.3520 136° Southeast 299 344 9,000 -1,200 Level FlightAware
10:00AM 32.3240 34.3830 136° Southeast 287 330 8,000 -1,260 Descending FlightAware
10:01AM 32.3030 34.4080 135° Southeast 287 330 8,000  Level FlightAware
10:01AM 32.2940 34.4190 134° Southeast 287 330 8,000  Level FlightAware
10:01AM 32.2760 34.4400 135° Southeast 287 330 8,000  Level FlightAware
10:02AM 32.2590 34.4610 134° Southeast 287 330 8,000  Level FlightAware
10:02AM 32.2390 34.4830 137° Southeast 287 330 8,000 -1,200 Level FlightAware
10:04AM 32.1610 34.6480 124° Southeast 266 306 5,200 -1,140 Descending FlightAware
10:05AM 32.1380 34.6880 124° Southeast 266 306 5,100  Descending FlightAware
10:05AM 32.1190 34.7230 123° Southeast 245 282 5,200 60 Climbing FlightAware
10:06AM 32.1040 34.7490 124° Southeast 245 282 5,200 -180 Level FlightAware
10:06AM 32.0860 34.7750 129° Southeast 238 274 5,100 -360 Descending FlightAware
10:07AM 32.0620 34.8020 136° Southeast 240 276 4,900 -540 Descending FlightAware
10:07AM 32.0790 34.7830 317° Northwest 218 251 4,600 -360 Descending FlightAware
10:08AM 32.0610 34.8020 138° Southeast 218 251 4,600 -1,440 Level FlightAware
10:08AM 32.0790 34.7830 318° Northwest 213 245 3,300 -2,160 Descending FlightAware
10:08AM 32.0090 34.8900 128° Southeast 189 217 3,100 -900 Descending FlightAware
10:09AM 32.0130 34.9090 76° East 186 214 2,800 -600 Descending FlightAware
10:09AM 32.0210 34.9430 74° East 186 214 2,500 -480 Descending FlightAware
10:12AM 32.0095 34.8769 125° Southeast  Level Estimated
10:13AM 32.0095 34.8769 125° Southeast  Level Estimated
10:14AM 32.0095 34.8769 125° Southeast  Level Estimated
10:15AM 32.0095 34.8769 125° Southeast  Level Estimated
10:16AM 32.0095 34.8769 125° Southeast  Level Estimated
10:17AM 32.0095 34.8769 125° Southeast  Level Estimated
10:18AM 32.0095 34.8769 125° Southeast  Level Estimated
10:19AM 32.0095 34.8769 125° Southeast  Level Estimated
10:20AM 32.0095 34.8769 125° Southeast  Level Estimated
10:21AM 32.0095 34.8769 125° Southeast  Level Estimated